createdAt,value
2023-05-23T00:01:06.192Z,13.92
2023-05-23T00:03:37.707Z,13.76
2023-05-23T00:06:08.265Z,13.51
2023-05-23T00:08:38.348Z,13.39
2023-05-23T00:11:12.966Z,13.26
2023-05-23T00:13:53.346Z,13.16
2023-05-23T00:16:23.890Z,13.06
2023-05-23T00:18:54.658Z,13.25
2023-05-23T00:21:25.567Z,12.90
2023-05-23T00:23:56.856Z,12.53
2023-05-23T00:26:32.871Z,12.70
2023-05-23T00:29:03.522Z,12.62
2023-05-23T00:31:34.236Z,13.19
2023-05-23T00:34:10.232Z,13.38
2023-05-23T00:36:44.059Z,13.13
2023-05-23T00:39:29.788Z,12.98
2023-05-23T00:42:05.334Z,13.11
2023-05-23T00:44:38.299Z,12.78
2023-05-23T00:47:09.926Z,12.91
2023-05-23T00:49:44.501Z,13.10
2023-05-23T00:52:20.841Z,12.98
2023-05-23T00:55:04.679Z,12.95
2023-05-23T00:57:43.630Z,12.44
2023-05-23T01:00:20.299Z,12.78
2023-05-23T01:02:52.673Z,12.86
2023-05-23T01:08:13.155Z,12.95
2023-05-23T01:11:00.032Z,13.18
2023-05-23T01:14:00.948Z,12.91
2023-05-23T01:17:04.818Z,12.97
2023-05-23T01:20:07.498Z,12.75
2023-05-23T01:23:08.588Z,12.43
2023-05-23T01:26:29.183Z,12.76
2023-05-23T01:29:13.237Z,12.78
2023-05-23T01:31:47.377Z,12.30
2023-05-23T01:34:22.060Z,12.30
2023-05-23T01:37:02.762Z,11.93
2023-05-23T01:39:34.064Z,12.06
2023-05-23T01:42:18.635Z,12.34
2023-05-23T01:45:05.230Z,12.58
2023-05-23T01:47:37.197Z,12.34
2023-05-23T01:50:20.610Z,12.30
2023-05-23T01:52:54.597Z,12.40
2023-05-23T01:55:33.840Z,12.39
2023-05-23T01:58:17.534Z,12.50
2023-05-23T02:00:56.815Z,12.41
2023-05-23T02:03:37.063Z,11.93
2023-05-23T02:06:17.075Z,12.26
2023-05-23T02:08:50.875Z,12.20
2023-05-23T02:11:26.975Z,12.21
2023-05-23T02:14:10.629Z,12.28
2023-05-23T02:16:50.476Z,11.86
2023-05-23T02:19:25.374Z,12.13
2023-05-23T02:22:01.021Z,12.52
2023-05-23T02:24:46.476Z,12.11
2023-05-23T02:27:18.218Z,12.19
2023-05-23T02:29:52.827Z,12.06
2023-05-23T02:32:27.624Z,12.18
2023-05-23T02:34:58.381Z,12.42
2023-05-23T02:37:30.368Z,12.40
2023-05-23T02:40:07.243Z,12.35
2023-05-23T02:42:44.196Z,12.15
2023-05-23T02:45:15.261Z,12.31
2023-05-23T02:47:47.363Z,12.27
2023-05-23T02:50:26.458Z,12.20
2023-05-23T02:53:00.395Z,12.40
2023-05-23T02:55:36.295Z,12.12
2023-05-23T02:58:06.174Z,11.72
2023-05-23T03:00:37.066Z,11.83
2023-05-23T03:03:12.039Z,11.79
2023-05-23T03:05:43.624Z,11.73
2023-05-23T03:08:20.698Z,12.13
2023-05-23T03:10:54.138Z,11.77
2023-05-23T03:13:27.914Z,11.71
2023-05-23T03:16:11.453Z,11.52
2023-05-23T03:18:43.524Z,11.60
2023-05-23T03:21:15.635Z,11.90
2023-05-23T03:23:58.274Z,11.51
2023-05-23T03:26:40.481Z,11.52
2023-05-23T03:29:11.789Z,11.41
2023-05-23T03:31:49.335Z,11.83
2023-05-23T03:34:34.068Z,11.62
2023-05-23T03:37:04.690Z,11.50
2023-05-23T03:39:36.878Z,11.38
2023-05-23T03:42:06.838Z,11.71
2023-05-23T03:44:37.339Z,11.54
2023-05-23T03:47:14.100Z,11.60
2023-05-23T03:49:54.943Z,11.61
2023-05-23T03:52:43.647Z,11.58
2023-05-23T03:55:17.618Z,11.44
2023-05-23T03:57:47.946Z,11.66
2023-05-23T04:00:19.558Z,11.72
2023-05-23T04:03:00.181Z,11.90
2023-05-23T04:05:33.947Z,12.07
2023-05-23T04:08:07.725Z,11.87
2023-05-23T04:10:44.893Z,12.03
2023-05-23T04:13:36.331Z,11.83
2023-05-23T04:16:11.636Z,11.68
2023-05-23T04:18:53.956Z,11.56
2023-05-23T04:21:28.013Z,11.55
2023-05-23T04:24:19.001Z,11.74
2023-05-23T04:26:48.117Z,11.81
2023-05-23T04:29:28.738Z,12.11
2023-05-23T04:31:58.829Z,12.13
2023-05-23T04:34:37.624Z,12.51
2023-05-23T04:37:15.683Z,12.49
2023-05-23T04:39:46.043Z,12.40
2023-05-23T04:42:40.021Z,12.39
2023-05-23T04:45:35.001Z,12.74
2023-05-23T04:51:12.807Z,13.00
2023-05-23T04:54:28.057Z,13.07
2023-05-23T04:57:03.090Z,13.01
2023-05-23T04:59:50.738Z,12.98
2023-05-23T05:02:24.653Z,13.00
2023-05-23T05:04:57.465Z,13.19
2023-05-23T05:07:32.606Z,13.29
2023-05-23T05:10:07.709Z,13.44
2023-05-23T05:12:41.307Z,13.39
2023-05-23T05:15:12.570Z,13.52
2023-05-23T05:17:50.313Z,13.57
2023-05-23T05:20:27.614Z,13.64
2023-05-23T05:23:01.907Z,13.77
2023-05-23T05:25:36.537Z,13.84
2023-05-23T05:28:20.357Z,14.00
2023-05-23T05:31:08.305Z,14.08
2023-05-23T05:33:45.269Z,14.12
2023-05-23T05:36:20.521Z,14.19
2023-05-23T05:39:06.777Z,14.34
2023-05-23T05:41:49.081Z,14.46
2023-05-23T05:44:33.974Z,14.53
2023-05-23T05:47:04.609Z,14.72
2023-05-23T05:49:38.651Z,14.84
2023-05-23T05:52:09.736Z,14.93
2023-05-23T05:54:41.661Z,14.95
2023-05-23T05:57:15.068Z,15.00
2023-05-23T05:59:50.524Z,15.12
2023-05-23T06:05:07.963Z,15.51
2023-05-23T06:07:45.545Z,15.63
2023-05-23T06:10:17.012Z,15.46
2023-05-23T06:13:06.411Z,15.88
2023-05-23T06:15:43.817Z,16.00
2023-05-23T06:18:24.801Z,15.98
2023-05-23T06:21:14.776Z,16.18
2023-05-23T06:23:50.742Z,16.24
2023-05-23T06:26:21.489Z,16.37
2023-05-23T06:28:50.940Z,16.58
2023-05-23T06:31:22.398Z,16.45
2023-05-23T06:33:52.048Z,16.70
2023-05-23T06:36:23.284Z,16.98
2023-05-23T06:38:56.236Z,17.02
2023-05-23T06:41:29.726Z,17.09
2023-05-23T06:44:03.267Z,17.17
2023-05-23T06:46:34.378Z,17.04
2023-05-23T06:49:15.085Z,17.44
2023-05-23T06:52:03.523Z,17.43
2023-05-23T06:54:40.034Z,17.72
2023-05-23T06:57:15.330Z,17.73
2023-05-23T06:59:50.000Z,17.85
2023-05-23T07:02:26.716Z,18.01
2023-05-23T07:05:00.387Z,18.12
2023-05-23T07:08:05.126Z,18.09
2023-05-23T07:10:37.473Z,18.08
2023-05-23T07:13:25.353Z,18.08
2023-05-23T07:15:58.958Z,18.28
2023-05-23T07:18:31.918Z,18.44
2023-05-23T07:23:51.465Z,18.58
2023-05-23T07:26:34.681Z,18.62
2023-05-23T07:29:08.346Z,18.71
2023-05-23T07:31:40.367Z,18.94
2023-05-23T07:34:22.132Z,18.97
2023-05-23T07:37:00.194Z,18.87
2023-05-23T07:39:41.139Z,18.98
2023-05-23T07:42:11.745Z,19.16
2023-05-23T07:44:47.582Z,19.17
2023-05-23T07:47:18.266Z,19.36
2023-05-23T07:49:47.967Z,19.39
2023-05-23T07:52:25.140Z,19.51
2023-05-23T07:55:01.179Z,19.61
2023-05-23T07:57:32.016Z,19.80
2023-05-23T08:00:03.514Z,20.13
2023-05-23T08:02:53.992Z,20.18
2023-05-23T08:05:30.842Z,20.09
2023-05-23T08:08:10.066Z,20.21
2023-05-23T08:10:44.718Z,20.44
2023-05-23T08:13:25.156Z,20.42
2023-05-23T08:16:19.167Z,20.55
2023-05-23T08:21:44.830Z,20.78
2023-05-23T08:24:23.536Z,20.75
2023-05-23T08:26:59.529Z,20.51
2023-05-23T08:29:35.899Z,20.57
2023-05-23T08:32:06.668Z,20.72
2023-05-23T08:34:48.913Z,21.19
2023-05-23T08:37:30.058Z,21.28
2023-05-23T08:40:07.492Z,21.54
2023-05-23T08:45:40.082Z,21.43
2023-05-23T08:48:26.502Z,21.43
2023-05-23T08:51:09.320Z,21.55
2023-05-23T08:53:47.408Z,21.74
2023-05-23T08:56:28.567Z,21.99
2023-05-23T08:59:05.027Z,22.14
2023-05-23T09:01:39.856Z,22.12
2023-05-23T09:04:18.212Z,22.33
2023-05-23T09:06:55.700Z,22.45
2023-05-23T09:09:26.988Z,22.70
2023-05-23T09:12:02.586Z,22.65
2023-05-23T09:14:39.240Z,22.73
2023-05-23T09:17:19.063Z,22.60
2023-05-23T09:22:50.397Z,22.93
2023-05-23T09:25:26.541Z,22.76
2023-05-23T09:28:02.676Z,22.78
2023-05-23T09:30:36.051Z,22.83
2023-05-23T09:33:07.754Z,22.85
2023-05-23T09:38:34.447Z,22.98
2023-05-23T09:41:16.771Z,22.99
2023-05-23T09:43:58.659Z,23.37
2023-05-23T09:46:30.415Z,23.39
2023-05-23T09:49:01.264Z,23.34
2023-05-23T09:51:42.676Z,23.31
2023-05-23T09:54:13.596Z,23.90
2023-05-23T09:56:53.162Z,23.81
2023-05-23T09:59:31.085Z,23.93
2023-05-23T10:02:15.507Z,23.91
2023-05-23T10:04:55.162Z,23.96
2023-05-23T10:07:28.520Z,24.37
2023-05-23T10:10:15.108Z,24.52
2023-05-23T10:13:05.153Z,24.57
2023-05-23T10:15:43.126Z,24.72
2023-05-23T10:18:25.265Z,25.05
2023-05-23T10:21:03.940Z,25.05
2023-05-23T10:23:34.871Z,25.18
2023-05-23T10:26:08.488Z,25.40
2023-05-23T10:28:54.817Z,25.43
2023-05-23T10:31:36.373Z,25.49
2023-05-23T10:34:24.444Z,25.57
2023-05-23T10:37:14.244Z,25.73
2023-05-23T10:40:03.711Z,26.12
2023-05-23T10:42:57.704Z,25.98
2023-05-23T10:45:30.414Z,25.98
2023-05-23T10:48:05.899Z,25.95
2023-05-23T10:50:39.819Z,26.02
2023-05-23T10:53:14.149Z,25.99
2023-05-23T10:55:58.597Z,25.89
2023-05-23T10:58:33.381Z,26.30
2023-05-23T11:01:04.029Z,26.07
2023-05-23T11:03:56.211Z,26.49
2023-05-23T11:06:49.718Z,26.66
2023-05-23T11:09:24.502Z,26.29
2023-05-23T11:12:00.510Z,26.26
2023-05-23T11:15:00.105Z,26.24
2023-05-23T11:20:23.587Z,26.83
2023-05-23T11:23:15.702Z,26.99
2023-05-23T11:26:05.448Z,26.97
2023-05-23T11:28:59.138Z,27.25
2023-05-23T11:31:42.552Z,27.23
2023-05-23T11:34:14.162Z,27.35
2023-05-23T11:36:43.609Z,27.25
2023-05-23T11:39:14.361Z,27.63
2023-05-23T11:41:46.977Z,27.87
2023-05-23T11:44:17.169Z,27.84
2023-05-23T11:47:03.783Z,27.98
2023-05-23T11:49:36.819Z,27.99
2023-05-23T11:52:14.385Z,27.97
2023-05-23T11:54:55.304Z,28.04
2023-05-23T11:57:35.210Z,27.95
2023-05-23T12:00:06.994Z,28.46
2023-05-23T12:02:52.255Z,28.18
2023-05-23T12:05:31.478Z,28.05
2023-05-23T12:08:03.390Z,27.58
2023-05-23T12:10:41.702Z,27.92
2023-05-23T12:13:21.061Z,28.28
2023-05-23T12:15:57.468Z,28.54
2023-05-23T12:18:37.762Z,28.69
2023-05-23T12:21:21.658Z,28.68
2023-05-23T12:24:07.171Z,28.61
2023-05-23T12:26:52.039Z,28.37
2023-05-23T12:29:42.219Z,28.65
2023-05-23T12:32:16.318Z,28.65
2023-05-23T12:34:54.332Z,28.57
2023-05-23T12:37:27.831Z,28.75
2023-05-23T12:39:59.096Z,28.95
2023-05-23T12:42:32.606Z,28.86
2023-05-23T12:47:47.729Z,28.81
2023-05-23T12:50:19.848Z,28.79
2023-05-23T12:52:53.361Z,28.77
2023-05-23T12:55:23.201Z,28.67
2023-05-23T12:57:50.990Z,28.88
2023-05-23T13:00:39.153Z,28.98
2023-05-23T13:03:10.673Z,28.85
2023-05-23T13:05:40.565Z,28.65
2023-05-23T13:08:15.249Z,28.69
2023-05-23T13:13:30.629Z,29.33
2023-05-23T13:16:04.965Z,29.30
2023-05-23T13:18:33.433Z,28.91
2023-05-23T13:21:05.082Z,29.34
2023-05-23T13:23:45.751Z,29.12
2023-05-23T13:26:15.711Z,29.15
2023-05-23T13:28:53.863Z,29.11
2023-05-23T13:31:25.168Z,29.33
2023-05-23T13:33:54.413Z,29.12
2023-05-23T13:39:11.558Z,28.83
2023-05-23T13:44:25.548Z,28.51
2023-05-23T13:47:00.207Z,28.15
2023-05-23T13:49:33.016Z,27.94
2023-05-23T13:52:23.278Z,27.85
2023-05-23T13:54:54.303Z,27.73
2023-05-23T13:57:32.648Z,27.62
2023-05-23T14:00:03.167Z,27.54
2023-05-23T14:02:55.588Z,27.30
2023-05-23T14:05:29.697Z,26.87
2023-05-23T14:08:02.521Z,26.55
2023-05-23T14:10:33.965Z,26.30
2023-05-23T14:13:09.021Z,26.22
2023-05-23T14:15:41.626Z,26.14
2023-05-23T14:18:19.949Z,25.81
2023-05-23T14:20:51.501Z,25.73
2023-05-23T14:23:20.853Z,25.41
2023-05-23T14:25:49.070Z,25.31
2023-05-23T14:31:09.282Z,24.88
2023-05-23T14:33:39.938Z,24.64
2023-05-23T14:36:14.173Z,24.34
2023-05-23T14:38:49.462Z,23.94
2023-05-23T14:41:23.554Z,23.89
2023-05-23T14:43:57.228Z,23.51
2023-05-23T14:46:28.575Z,23.31
2023-05-23T14:49:06.480Z,23.07
2023-05-23T14:51:48.575Z,22.62
2023-05-23T14:54:20.953Z,22.41
2023-05-23T14:56:54.223Z,22.17
2023-05-23T14:59:38.009Z,21.33
2023-05-23T15:02:09.655Z,20.95
2023-05-23T15:07:32.737Z,20.44
2023-05-23T15:10:05.229Z,20.30
2023-05-23T15:12:38.744Z,20.27
2023-05-23T15:15:13.255Z,20.30
2023-05-23T15:17:46.207Z,20.24
2023-05-23T15:20:25.246Z,20.34
2023-05-23T15:23:05.118Z,20.21
2023-05-23T15:25:49.338Z,20.06
2023-05-23T15:28:24.358Z,19.75
2023-05-23T15:31:00.271Z,19.74
2023-05-23T15:33:37.747Z,19.80
2023-05-23T15:36:08.546Z,19.93
2023-05-23T15:38:39.222Z,19.84
2023-05-23T15:41:10.825Z,19.72
2023-05-23T15:43:43.609Z,19.65
2023-05-23T15:46:14.087Z,19.54
2023-05-23T15:48:54.578Z,19.49
2023-05-23T15:51:25.049Z,19.28
2023-05-23T15:56:25.448Z,19.16
2023-05-23T15:59:01.506Z,19.16
2023-05-23T16:01:36.265Z,19.07
2023-05-23T16:04:10.681Z,18.94
2023-05-23T16:06:44.969Z,18.68
2023-05-23T16:09:21.220Z,18.48
2023-05-23T16:11:52.233Z,18.40
2023-05-23T16:14:22.326Z,18.29
2023-05-23T16:16:53.981Z,18.14
2023-05-23T16:19:35.392Z,18.26
2023-05-23T16:22:05.660Z,17.69
2023-05-23T16:24:34.957Z,18.03
2023-05-23T16:27:04.565Z,17.98
2023-05-23T16:29:37.935Z,18.07
2023-05-23T16:34:54.367Z,17.82
2023-05-23T16:37:34.002Z,18.06
2023-05-23T16:40:13.004Z,17.97
2023-05-23T16:42:43.400Z,17.81
2023-05-23T16:45:11.327Z,17.77
2023-05-23T16:47:49.754Z,17.86
2023-05-23T16:50:20.584Z,17.73
2023-05-23T16:55:40.452Z,17.65
2023-05-23T16:58:15.172Z,17.69
2023-05-23T17:00:45.555Z,17.72
2023-05-23T17:03:17.371Z,17.72
2023-05-23T17:05:50.900Z,17.77
2023-05-23T17:08:23.848Z,17.68
2023-05-23T17:10:57.348Z,17.38
2023-05-23T17:13:33.132Z,17.32
2023-05-23T17:16:03.628Z,17.43
2023-05-23T17:18:43.732Z,17.76
2023-05-23T17:21:17.106Z,17.64
2023-05-23T17:23:48.966Z,17.77
2023-05-23T17:26:20.091Z,17.66
2023-05-23T17:28:51.103Z,17.62
2023-05-23T17:31:21.161Z,17.54
2023-05-23T17:33:51.701Z,17.64
2023-05-23T17:36:25.475Z,17.57
2023-05-23T17:39:04.040Z,17.54
2023-05-23T17:44:18.751Z,17.87
2023-05-23T17:46:47.960Z,17.83
2023-05-23T17:49:18.570Z,17.55
2023-05-23T17:51:50.189Z,17.54
2023-05-23T17:54:18.826Z,17.52
2023-05-23T17:56:49.990Z,17.41
2023-05-23T17:59:21.580Z,17.36
2023-05-23T18:01:58.093Z,17.49
2023-05-23T18:07:34.169Z,17.45
2023-05-23T18:10:03.749Z,17.38
2023-05-23T18:12:47.028Z,17.29
2023-05-23T18:15:17.959Z,16.94
2023-05-23T18:18:00.972Z,17.13
2023-05-23T18:20:34.184Z,17.29
2023-05-23T18:23:08.429Z,17.34
2023-05-23T18:25:37.323Z,17.11
2023-05-23T18:28:11.303Z,17.01
2023-05-23T18:31:01.657Z,17.05
2023-05-23T18:33:31.505Z,17.06
2023-05-23T18:36:05.473Z,17.18
2023-05-23T18:38:36.365Z,17.00
2023-05-23T18:41:13.928Z,17.04
2023-05-23T18:43:44.631Z,17.11
2023-05-23T18:46:21.570Z,17.13
2023-05-23T18:48:55.514Z,17.03
2023-05-23T18:51:30.019Z,17.06
2023-05-23T18:54:07.314Z,17.09
2023-05-23T18:56:53.190Z,17.04
2023-05-23T18:59:36.750Z,16.92
2023-05-23T19:02:07.182Z,17.05
2023-05-23T19:04:38.993Z,16.86
2023-05-23T19:07:21.318Z,16.71
2023-05-23T19:09:58.822Z,16.52
2023-05-23T19:12:34.743Z,16.37
2023-05-23T19:15:21.583Z,16.41
2023-05-23T19:17:56.523Z,16.28
2023-05-23T19:20:26.403Z,16.27
2023-05-23T19:23:00.346Z,16.28
2023-05-23T19:28:19.413Z,16.26
2023-05-23T19:30:48.521Z,16.28
2023-05-23T19:33:24.026Z,16.38
2023-05-23T19:35:54.989Z,16.47
2023-05-23T19:38:25.618Z,16.44
2023-05-23T19:40:55.588Z,16.35
2023-05-23T19:43:27.307Z,16.31
2023-05-23T19:45:59.638Z,16.42
2023-05-23T19:48:30.236Z,16.38
2023-05-23T19:50:59.609Z,16.41
2023-05-23T19:53:30.570Z,16.48
2023-05-23T19:56:05.977Z,16.32
2023-05-23T19:58:38.048Z,16.37
2023-05-23T20:01:08.268Z,16.36
2023-05-23T20:03:38.838Z,16.42
2023-05-23T20:06:17.307Z,16.31
2023-05-23T20:08:47.688Z,16.30
2023-05-23T20:11:17.559Z,16.07
2023-05-23T20:13:50.147Z,16.14
2023-05-23T20:16:28.274Z,16.04
2023-05-23T20:19:01.251Z,16.27
2023-05-23T20:21:41.888Z,16.34
2023-05-23T20:24:21.626Z,16.34
2023-05-23T20:26:50.126Z,16.35
2023-05-23T20:29:18.441Z,16.23
2023-05-23T20:31:53.130Z,16.33
2023-05-23T20:34:34.601Z,16.24
2023-05-23T20:37:07.470Z,16.27
2023-05-23T20:39:41.294Z,16.03
2023-05-23T20:42:11.812Z,15.97
2023-05-23T20:44:43.019Z,15.87
2023-05-23T20:47:13.078Z,15.88
2023-05-23T20:49:44.895Z,15.96
2023-05-23T20:52:15.302Z,16.06
2023-05-23T20:54:52.246Z,16.08
2023-05-23T20:57:29.135Z,16.15
2023-05-23T21:00:00.602Z,15.86
2023-05-23T21:02:32.581Z,16.20
2023-05-23T21:05:03.773Z,16.18
2023-05-23T21:07:36.492Z,16.31
2023-05-23T21:10:07.616Z,16.20
2023-05-23T21:12:53.303Z,16.17
2023-05-23T21:15:27.728Z,16.12
2023-05-23T21:18:01.063Z,16.15
2023-05-23T21:20:39.092Z,16.06
2023-05-23T21:23:14.680Z,16.13
2023-05-23T21:26:00.366Z,16.13
2023-05-23T21:28:31.568Z,16.16
2023-05-23T21:31:03.421Z,16.24
2023-05-23T21:33:47.205Z,16.28
2023-05-23T21:36:20.790Z,16.29
2023-05-23T21:38:49.521Z,16.26
2023-05-23T21:41:27.853Z,16.28
2023-05-23T21:44:10.059Z,16.14
2023-05-23T21:46:43.273Z,16.24
2023-05-23T21:49:17.472Z,16.30
2023-05-23T21:51:55.675Z,16.11
2023-05-23T21:54:29.478Z,16.08
2023-05-23T21:56:58.702Z,16.01
2023-05-23T21:59:38.843Z,16.02
2023-05-23T22:02:13.508Z,15.93
2023-05-23T22:07:32.521Z,15.88
2023-05-23T22:10:02.752Z,15.97
2023-05-23T22:12:32.453Z,15.97
2023-05-23T22:15:02.817Z,15.83
2023-05-23T22:17:37.360Z,15.87
2023-05-23T22:20:08.828Z,15.61
2023-05-23T22:22:40.602Z,15.75
2023-05-23T22:25:12.886Z,15.73
2023-05-23T22:27:46.665Z,15.65
2023-05-23T22:30:15.922Z,15.48
2023-05-23T22:32:49.677Z,15.53
2023-05-23T22:35:18.545Z,15.47
2023-05-23T22:37:53.013Z,15.53
2023-05-23T22:40:23.735Z,15.62
2023-05-23T22:42:57.407Z,15.56
2023-05-23T22:48:11.552Z,15.46
2023-05-23T22:50:47.165Z,15.54
2023-05-23T22:53:17.677Z,15.55
2023-05-23T22:55:48.909Z,15.55
2023-05-23T22:58:18.397Z,15.53
2023-05-23T23:00:49.103Z,15.30
2023-05-23T23:03:22.848Z,15.18
2023-05-23T23:05:57.246Z,15.29
2023-05-23T23:08:30.705Z,15.17
2023-05-23T23:11:01.574Z,15.23
2023-05-23T23:13:29.932Z,15.21
2023-05-23T23:16:04.664Z,15.29
2023-05-23T23:18:32.674Z,15.26
2023-05-23T23:21:05.710Z,15.44
2023-05-23T23:23:38.263Z,15.55
2023-05-23T23:26:12.312Z,15.38
2023-05-23T23:28:45.982Z,15.46
2023-05-23T23:31:17.070Z,15.48
2023-05-23T23:33:51.224Z,15.52
2023-05-23T23:36:22.105Z,15.41
2023-05-23T23:38:56.024Z,15.37
2023-05-23T23:41:29.244Z,15.37
2023-05-23T23:43:59.792Z,15.36
2023-05-23T23:46:31.119Z,15.45
2023-05-23T23:49:07.498Z,15.42
2023-05-23T23:51:37.910Z,15.46
2023-05-23T23:54:08.119Z,15.43
2023-05-23T23:56:38.993Z,15.45
2023-05-23T23:59:12.413Z,15.40
